sensor_id;sensor_type;location;lat;lon;timestamp;temperature;humidity
67572;SHT31;54397;47.506;19.158;2022-12-07T00:01:25;4.85;79.00
67572;SHT31;54397;47.506;19.158;2022-12-07T00:04:48;4.87;79.41
67572;SHT31;54397;47.506;19.158;2022-12-07T00:08:13;4.85;79.32
67572;SHT31;54397;47.506;19.158;2022-12-07T00:11:34;4.83;79.66
67572;SHT31;54397;47.506;19.158;2022-12-07T00:14:58;4.97;78.93
67572;SHT31;54397;47.506;19.158;2022-12-07T00:18:20;4.93;78.65
67572;SHT31;54397;47.506;19.158;2022-12-07T00:21:42;4.85;78.56
67572;SHT31;54397;47.506;19.158;2022-12-07T00:25:03;4.96;77.32
67572;SHT31;54397;47.506;19.158;2022-12-07T00:28:28;4.85;77.27
67572;SHT31;54397;47.506;19.158;2022-12-07T00:31:49;4.64;77.20
67572;SHT31;54397;47.506;19.158;2022-12-07T00:35:11;4.48;77.90
67572;SHT31;54397;47.506;19.158;2022-12-07T00:38:34;4.49;78.49
67572;SHT31;54397;47.506;19.158;2022-12-07T00:41:56;4.51;79.07
67572;SHT31;54397;47.506;19.158;2022-12-07T00:45:17;4.47;80.15
67572;SHT31;54397;47.506;19.158;2022-12-07T00:48:39;4.40;79.08
67572;SHT31;54397;47.506;19.158;2022-12-07T00:52:03;4.42;78.39
67572;SHT31;54397;47.506;19.158;2022-12-07T00:55:27;4.38;78.44
67572;SHT31;54397;47.506;19.158;2022-12-07T00:58:56;4.42;77.59
67572;SHT31;54397;47.506;19.158;2022-12-07T01:02:20;4.33;77.64
67572;SHT31;54397;47.506;19.158;2022-12-07T01:05:56;4.14;79.34
67572;SHT31;54397;47.506;19.158;2022-12-07T01:09:18;4.17;78.34
67572;SHT31;54397;47.506;19.158;2022-12-07T01:12:40;4.04;78.73
67572;SHT31;54397;47.506;19.158;2022-12-07T01:16:06;4.03;80.13
67572;SHT31;54397;47.506;19.158;2022-12-07T01:19:28;3.97;80.61
67572;SHT31;54397;47.506;19.158;2022-12-07T01:22:50;4.00;80.68
67572;SHT31;54397;47.506;19.158;2022-12-07T01:26:14;3.94;79.61
67572;SHT31;54397;47.506;19.158;2022-12-07T01:29:38;3.90;79.84
67572;SHT31;54397;47.506;19.158;2022-12-07T01:33:00;3.90;79.31
67572;SHT31;54397;47.506;19.158;2022-12-07T01:36:30;3.86;78.64
67572;SHT31;54397;47.506;19.158;2022-12-07T01:39:52;3.85;80.14
67572;SHT31;54397;47.506;19.158;2022-12-07T01:43:20;3.80;80.50
67572;SHT31;54397;47.506;19.158;2022-12-07T01:46:46;3.86;79.06
67572;SHT31;54397;47.506;19.158;2022-12-07T01:50:08;3.79;79.96
67572;SHT31;54397;47.506;19.158;2022-12-07T01:53:31;3.75;80.66
67572;SHT31;54397;47.506;19.158;2022-12-07T01:56:56;3.79;80.78
67572;SHT31;54397;47.506;19.158;2022-12-07T02:00:19;3.79;80.99
67572;SHT31;54397;47.506;19.158;2022-12-07T02:03:42;3.78;80.88
67572;SHT31;54397;47.506;19.158;2022-12-07T02:07:05;3.51;80.24
67572;SHT31;54397;47.506;19.158;2022-12-07T02:10:29;3.55;81.63
67572;SHT31;54397;47.506;19.158;2022-12-07T02:13:53;3.56;82.17
67572;SHT31;54397;47.506;19.158;2022-12-07T02:17:22;3.49;82.05
67572;SHT31;54397;47.506;19.158;2022-12-07T02:31:11;3.80;80.87
67572;SHT31;54397;47.506;19.158;2022-12-07T02:34:42;3.79;81.21
67572;SHT31;54397;47.506;19.158;2022-12-07T02:41:46;3.87;81.16
67572;SHT31;54397;47.506;19.158;2022-12-07T02:45:17;3.94;80.83
67572;SHT31;54397;47.506;19.158;2022-12-07T02:48:40;3.97;80.54
67572;SHT31;54397;47.506;19.158;2022-12-07T02:52:03;3.91;80.52
67572;SHT31;54397;47.506;19.158;2022-12-07T02:55:34;4.03;80.66
67572;SHT31;54397;47.506;19.158;2022-12-07T03:06:31;3.82;80.89
67572;SHT31;54397;47.506;19.158;2022-12-07T03:17:17;4.00;80.49
67572;SHT31;54397;47.506;19.158;2022-12-07T03:20:42;3.94;80.74
67572;SHT31;54397;47.506;19.158;2022-12-07T03:24:09;3.70;82.12
67572;SHT31;54397;47.506;19.158;2022-12-07T03:31:14;3.73;81.38
67572;SHT31;54397;47.506;19.158;2022-12-07T03:41:39;3.76;82.17
67572;SHT31;54397;47.506;19.158;2022-12-07T03:45:06;3.79;81.55
67572;SHT31;54397;47.506;19.158;2022-12-07T03:48:37;3.85;81.85
67572;SHT31;54397;47.506;19.158;2022-12-07T03:55:37;3.86;82.07
67572;SHT31;54397;47.506;19.158;2022-12-07T03:59:03;3.87;82.15
67572;SHT31;54397;47.506;19.158;2022-12-07T04:02:26;3.80;82.28
67572;SHT31;54397;47.506;19.158;2022-12-07T04:05:49;3.85;82.39
67572;SHT31;54397;47.506;19.158;2022-12-07T04:09:14;3.91;82.44
67572;SHT31;54397;47.506;19.158;2022-12-07T04:12:36;4.03;81.74
67572;SHT31;54397;47.506;19.158;2022-12-07T04:15:57;4.07;81.67
67572;SHT31;54397;47.506;19.158;2022-12-07T04:19:21;4.08;81.97
67572;SHT31;54397;47.506;19.158;2022-12-07T04:22:42;3.94;82.64
67572;SHT31;54397;47.506;19.158;2022-12-07T04:26:04;4.00;83.07
67572;SHT31;54397;47.506;19.158;2022-12-07T04:29:26;4.06;82.99
67572;SHT31;54397;47.506;19.158;2022-12-07T04:32:47;4.08;83.02
67572;SHT31;54397;47.506;19.158;2022-12-07T04:36:09;4.07;83.29
67572;SHT31;54397;47.506;19.158;2022-12-07T04:39:32;4.07;83.72
67572;SHT31;54397;47.506;19.158;2022-12-07T04:42:54;4.13;82.94
67572;SHT31;54397;47.506;19.158;2022-12-07T04:46:15;4.14;82.86
67572;SHT31;54397;47.506;19.158;2022-12-07T04:49:42;4.24;83.24
67572;SHT31;54397;47.506;19.158;2022-12-07T04:53:04;4.25;83.36
67572;SHT31;54397;47.506;19.158;2022-12-07T04:56:28;4.25;83.03
67572;SHT31;54397;47.506;19.158;2022-12-07T04:59:49;4.20;83.54
67572;SHT31;54397;47.506;19.158;2022-12-07T05:03:17;4.24;82.66
67572;SHT31;54397;47.506;19.158;2022-12-07T05:06:38;4.22;82.62
67572;SHT31;54397;47.506;19.158;2022-12-07T05:10:03;4.22;82.63
67572;SHT31;54397;47.506;19.158;2022-12-07T05:13:25;4.17;82.29
67572;SHT31;54397;47.506;19.158;2022-12-07T05:16:48;4.17;83.09
67572;SHT31;54397;47.506;19.158;2022-12-07T05:20:11;4.14;83.11
67572;SHT31;54397;47.506;19.158;2022-12-07T05:23:35;4.20;82.91
67572;SHT31;54397;47.506;19.158;2022-12-07T05:26:59;4.13;82.67
67572;SHT31;54397;47.506;19.158;2022-12-07T05:30:21;3.99;83.00
67572;SHT31;54397;47.506;19.158;2022-12-07T05:33:42;3.96;83.20
67572;SHT31;54397;47.506;19.158;2022-12-07T05:37:04;3.93;83.50
67572;SHT31;54397;47.506;19.158;2022-12-07T05:40:25;3.86;84.85
67572;SHT31;54397;47.506;19.158;2022-12-07T05:43:50;4.00;84.95
67572;SHT31;54397;47.506;19.158;2022-12-07T05:47:13;4.07;85.23
67572;SHT31;54397;47.506;19.158;2022-12-07T05:50:35;4.20;84.85
67572;SHT31;54397;47.506;19.158;2022-12-07T05:53:56;4.34;85.19
67572;SHT31;54397;47.506;19.158;2022-12-07T05:57:18;4.41;84.46
67572;SHT31;54397;47.506;19.158;2022-12-07T06:00:40;4.44;84.07
67572;SHT31;54397;47.506;19.158;2022-12-07T06:04:13;4.42;83.05
67572;SHT31;54397;47.506;19.158;2022-12-07T06:07:35;4.45;82.95
67572;SHT31;54397;47.506;19.158;2022-12-07T06:11:01;4.44;83.78
67572;SHT31;54397;47.506;19.158;2022-12-07T06:14:42;4.37;84.07
67572;SHT31;54397;47.506;19.158;2022-12-07T06:18:03;4.33;84.89
67572;SHT31;54397;47.506;19.158;2022-12-07T06:21:25;4.41;84.06
67572;SHT31;54397;47.506;19.158;2022-12-07T06:24:48;4.47;83.80
67572;SHT31;54397;47.506;19.158;2022-12-07T06:28:09;4.34;84.03
67572;SHT31;54397;47.506;19.158;2022-12-07T06:31:31;4.34;84.96
67572;SHT31;54397;47.506;19.158;2022-12-07T06:34:53;4.17;84.32
67572;SHT31;54397;47.506;19.158;2022-12-07T06:38:16;4.21;85.06
67572;SHT31;54397;47.506;19.158;2022-12-07T06:41:40;4.27;84.36
67572;SHT31;54397;47.506;19.158;2022-12-07T06:45:02;4.37;84.13
67572;SHT31;54397;47.506;19.158;2022-12-07T06:48:24;4.14;84.38
67572;SHT31;54397;47.506;19.158;2022-12-07T06:51:45;4.10;85.44
67572;SHT31;54397;47.506;19.158;2022-12-07T06:55:07;4.16;85.27
67572;SHT31;54397;47.506;19.158;2022-12-07T06:58:29;4.11;85.28
67572;SHT31;54397;47.506;19.158;2022-12-07T07:01:50;4.22;85.10
67572;SHT31;54397;47.506;19.158;2022-12-07T07:05:12;4.41;84.15
67572;SHT31;54397;47.506;19.158;2022-12-07T07:08:36;4.44;84.59
67572;SHT31;54397;47.506;19.158;2022-12-07T07:11:58;4.40;83.65
67572;SHT31;54397;47.506;19.158;2022-12-07T07:15:22;4.37;83.82
67572;SHT31;54397;47.506;19.158;2022-12-07T07:18:48;4.31;84.40
67572;SHT31;54397;47.506;19.158;2022-12-07T07:22:10;4.30;85.17
67572;SHT31;54397;47.506;19.158;2022-12-07T07:25:31;4.38;84.65
67572;SHT31;54397;47.506;19.158;2022-12-07T07:28:55;4.44;84.21
67572;SHT31;54397;47.506;19.158;2022-12-07T07:32:19;4.40;84.52
67572;SHT31;54397;47.506;19.158;2022-12-07T07:35:48;4.59;84.48
67572;SHT31;54397;47.506;19.158;2022-12-07T07:39:10;4.69;83.88
67572;SHT31;54397;47.506;19.158;2022-12-07T07:42:34;4.68;84.44
67572;SHT31;54397;47.506;19.158;2022-12-07T07:45:55;4.69;84.60
67572;SHT31;54397;47.506;19.158;2022-12-07T07:49:17;4.72;84.53
67572;SHT31;54397;47.506;19.158;2022-12-07T07:52:41;4.79;84.37
67572;SHT31;54397;47.506;19.158;2022-12-07T07:56:03;4.89;84.75
67572;SHT31;54397;47.506;19.158;2022-12-07T07:59:24;5.04;84.71
67572;SHT31;54397;47.506;19.158;2022-12-07T08:02:48;5.09;84.57
67572;SHT31;54397;47.506;19.158;2022-12-07T08:06:10;5.28;84.31
67572;SHT31;54397;47.506;19.158;2022-12-07T08:09:32;5.34;83.86
67572;SHT31;54397;47.506;19.158;2022-12-07T08:12:55;5.44;83.73
67572;SHT31;54397;47.506;19.158;2022-12-07T08:16:32;5.61;83.92
67572;SHT31;54397;47.506;19.158;2022-12-07T08:19:54;5.63;83.20
67572;SHT31;54397;47.506;19.158;2022-12-07T08:23:15;5.85;82.91
67572;SHT31;54397;47.506;19.158;2022-12-07T08:26:40;5.82;83.13
67572;SHT31;54397;47.506;19.158;2022-12-07T08:30:02;6.06;83.08
67572;SHT31;54397;47.506;19.158;2022-12-07T08:33:24;6.23;82.64
67572;SHT31;54397;47.506;19.158;2022-12-07T08:36:47;6.17;81.91
67572;SHT31;54397;47.506;19.158;2022-12-07T08:40:11;6.29;83.02
67572;SHT31;54397;47.506;19.158;2022-12-07T08:43:36;6.30;83.23
67572;SHT31;54397;47.506;19.158;2022-12-07T08:47:04;6.55;82.75
67572;SHT31;54397;47.506;19.158;2022-12-07T08:50:30;6.65;81.79
67572;SHT31;54397;47.506;19.158;2022-12-07T08:53:54;6.89;81.93
67572;SHT31;54397;47.506;19.158;2022-12-07T08:57:19;6.99;80.81
67572;SHT31;54397;47.506;19.158;2022-12-07T09:00:45;7.17;80.59
67572;SHT31;54397;47.506;19.158;2022-12-07T09:04:07;7.33;79.34
67572;SHT31;54397;47.506;19.158;2022-12-07T09:07:30;7.37;78.97
67572;SHT31;54397;47.506;19.158;2022-12-07T09:10:52;7.46;79.76
67572;SHT31;54397;47.506;19.158;2022-12-07T09:14:16;7.58;79.22
67572;SHT31;54397;47.506;19.158;2022-12-07T09:17:38;7.12;77.55
67572;SHT31;54397;47.506;19.158;2022-12-07T09:21:00;6.77;79.25
67572;SHT31;54397;47.506;19.158;2022-12-07T09:24:26;6.55;79.29
67572;SHT31;54397;47.506;19.158;2022-12-07T09:27:57;6.77;80.08
67572;SHT31;54397;47.506;19.158;2022-12-07T09:31:19;7.37;80.16
67572;SHT31;54397;47.506;19.158;2022-12-07T09:34:44;7.60;76.77
67572;SHT31;54397;47.506;19.158;2022-12-07T09:38:08;8.14;76.06
67572;SHT31;54397;47.506;19.158;2022-12-07T09:41:32;8.37;74.89
67572;SHT31;54397;47.506;19.158;2022-12-07T09:44:54;8.43;75.63
67572;SHT31;54397;47.506;19.158;2022-12-07T09:48:36;8.53;75.71
67572;SHT31;54397;47.506;19.158;2022-12-07T09:55:33;8.79;74.85
67572;SHT31;54397;47.506;19.158;2022-12-07T09:59:00;8.57;71.94
67572;SHT31;54397;47.506;19.158;2022-12-07T10:05:52;7.75;73.86
67572;SHT31;54397;47.506;19.158;2022-12-07T10:09:16;8.05;75.85
67572;SHT31;54397;47.506;19.158;2022-12-07T10:13:14;9.56;69.81
67572;SHT31;54397;47.506;19.158;2022-12-07T10:16:41;9.61;68.13
67572;SHT31;54397;47.506;19.158;2022-12-07T10:20:20;10.04;66.20
67572;SHT31;54397;47.506;19.158;2022-12-07T10:27:33;9.78;68.07
67572;SHT31;54397;47.506;19.158;2022-12-07T10:30:56;8.77;70.31
67572;SHT31;54397;47.506;19.158;2022-12-07T10:34:28;8.79;71.69
67572;SHT31;54397;47.506;19.158;2022-12-07T10:37:52;9.01;69.90
67572;SHT31;54397;47.506;19.158;2022-12-07T10:41:18;8.71;69.15
67572;SHT31;54397;47.506;19.158;2022-12-07T10:44:41;8.60;70.24
67572;SHT31;54397;47.506;19.158;2022-12-07T10:48:16;8.87;68.85
67572;SHT31;54397;47.506;19.158;2022-12-07T10:52:02;8.63;68.24
67572;SHT31;54397;47.506;19.158;2022-12-07T10:59:52;9.16;70.30
67572;SHT31;54397;47.506;19.158;2022-12-07T11:10:26;9.09;70.74
67572;SHT31;54397;47.506;19.158;2022-12-07T11:15:11;9.19;69.59
67572;SHT31;54397;47.506;19.158;2022-12-07T11:18:11;8.91;70.85
67572;SHT31;54397;47.506;19.158;2022-12-07T11:21:47;9.11;71.03
67572;SHT31;54397;47.506;19.158;2022-12-07T11:39:54;8.50;67.32
67572;SHT31;54397;47.506;19.158;2022-12-07T11:47:25;8.16;67.23
67572;SHT31;54397;47.506;19.158;2022-12-07T11:50:52;8.56;66.45
67572;SHT31;54397;47.506;19.158;2022-12-07T11:54:22;8.56;67.67
67572;SHT31;54397;47.506;19.158;2022-12-07T11:57:46;8.44;67.79
67572;SHT31;54397;47.506;19.158;2022-12-07T12:12:17;8.75;67.82
67572;SHT31;54397;47.506;19.158;2022-12-07T12:24:00;11.87;56.55
67572;SHT31;54397;47.506;19.158;2022-12-07T12:27:35;13.85;52.74
67572;SHT31;54397;47.506;19.158;2022-12-07T12:31:11;14.19;50.75
67572;SHT31;54397;47.506;19.158;2022-12-07T12:38:28;14.02;50.30
67572;SHT31;54397;47.506;19.158;2022-12-07T12:41:53;15.22;46.98
67572;SHT31;54397;47.506;19.158;2022-12-07T12:45:25;14.81;48.59
67572;SHT31;54397;47.506;19.158;2022-12-07T12:48:47;14.68;48.05
67572;SHT31;54397;47.506;19.158;2022-12-07T13:02:53;12.03;53.48
67572;SHT31;54397;47.506;19.158;2022-12-07T13:09:47;10.57;57.10
67572;SHT31;54397;47.506;19.158;2022-12-07T13:16:38;9.70;60.99
67572;SHT31;54397;47.506;19.158;2022-12-07T13:20:02;9.08;61.27
67572;SHT31;54397;47.506;19.158;2022-12-07T13:23:34;8.99;61.50
67572;SHT31;54397;47.506;19.158;2022-12-07T13:26:59;8.65;63.59
67572;SHT31;54397;47.506;19.158;2022-12-07T13:30:22;8.59;64.07
67572;SHT31;54397;47.506;19.158;2022-12-07T13:33:47;8.47;64.69
67572;SHT31;54397;47.506;19.158;2022-12-07T13:40:37;8.23;64.85
67572;SHT31;54397;47.506;19.158;2022-12-07T13:44:11;8.29;64.39
67572;SHT31;54397;47.506;19.158;2022-12-07T13:47:41;8.50;64.25
67572;SHT31;54397;47.506;19.158;2022-12-07T13:51:04;8.44;64.82
67572;SHT31;54397;47.506;19.158;2022-12-07T13:54:26;8.46;64.90
67572;SHT31;54397;47.506;19.158;2022-12-07T13:57:54;8.51;63.87
67572;SHT31;54397;47.506;19.158;2022-12-07T14:01:16;8.20;63.88
67572;SHT31;54397;47.506;19.158;2022-12-07T14:04:37;8.10;65.17
67572;SHT31;54397;47.506;19.158;2022-12-07T14:08:21;8.07;64.71
67572;SHT31;54397;47.506;19.158;2022-12-07T14:11:47;7.89;65.31
67572;SHT31;54397;47.506;19.158;2022-12-07T14:15:21;7.68;66.41
67572;SHT31;54397;47.506;19.158;2022-12-07T14:18:44;7.81;67.56
67572;SHT31;54397;47.506;19.158;2022-12-07T14:22:15;7.84;67.16
67572;SHT31;54397;47.506;19.158;2022-12-07T14:29:33;7.95;67.26
67572;SHT31;54397;47.506;19.158;2022-12-07T14:33:04;7.72;67.12
67572;SHT31;54397;47.506;19.158;2022-12-07T14:36:25;7.68;68.21
67572;SHT31;54397;47.506;19.158;2022-12-07T14:39:50;7.64;67.97
67572;SHT31;54397;47.506;19.158;2022-12-07T14:43:12;7.74;68.77
67572;SHT31;54397;47.506;19.158;2022-12-07T14:46:35;7.70;68.53
67572;SHT31;54397;47.506;19.158;2022-12-07T14:49:57;7.78;68.89
67572;SHT31;54397;47.506;19.158;2022-12-07T14:53:29;7.63;68.75
67572;SHT31;54397;47.506;19.158;2022-12-07T14:56:52;7.70;68.12
67572;SHT31;54397;47.506;19.158;2022-12-07T15:00:17;7.67;68.20
67572;SHT31;54397;47.506;19.158;2022-12-07T15:03:39;7.65;68.29
67572;SHT31;54397;47.506;19.158;2022-12-07T15:07:03;7.67;68.85
67572;SHT31;54397;47.506;19.158;2022-12-07T15:10:28;7.53;69.64
67572;SHT31;54397;47.506;19.158;2022-12-07T15:13:55;7.44;69.80
67572;SHT31;54397;47.506;19.158;2022-12-07T15:17:29;7.31;69.51
67572;SHT31;54397;47.506;19.158;2022-12-07T15:20:52;7.28;69.99
67572;SHT31;54397;47.506;19.158;2022-12-07T15:24:14;7.27;70.21
67572;SHT31;54397;47.506;19.158;2022-12-07T15:27:36;7.28;70.01
67572;SHT31;54397;47.506;19.158;2022-12-07T15:30:59;7.28;69.27
67572;SHT31;54397;47.506;19.158;2022-12-07T15:34:41;7.16;70.09
67572;SHT31;54397;47.506;19.158;2022-12-07T15:38:05;7.12;69.79
67572;SHT31;54397;47.506;19.158;2022-12-07T15:41:28;7.06;69.81
67572;SHT31;54397;47.506;19.158;2022-12-07T15:44:52;7.00;69.97
67572;SHT31;54397;47.506;19.158;2022-12-07T15:48:30;7.05;70.62
67572;SHT31;54397;47.506;19.158;2022-12-07T15:51:51;6.91;70.63
67572;SHT31;54397;47.506;19.158;2022-12-07T15:55:17;6.85;71.23
67572;SHT31;54397;47.506;19.158;2022-12-07T15:58:39;6.82;71.26
67572;SHT31;54397;47.506;19.158;2022-12-07T16:02:01;6.78;70.97
67572;SHT31;54397;47.506;19.158;2022-12-07T16:05:22;6.91;70.68
67572;SHT31;54397;47.506;19.158;2022-12-07T16:08:46;6.72;71.33
67572;SHT31;54397;47.506;19.158;2022-12-07T16:12:08;6.69;71.66
67572;SHT31;54397;47.506;19.158;2022-12-07T16:15:30;6.63;71.31
67572;SHT31;54397;47.506;19.158;2022-12-07T16:18:52;6.51;71.69
67572;SHT31;54397;47.506;19.158;2022-12-07T16:22:13;6.41;71.78
67572;SHT31;54397;47.506;19.158;2022-12-07T16:25:38;6.34;72.79
67572;SHT31;54397;47.506;19.158;2022-12-07T16:28:59;6.34;72.44
67572;SHT31;54397;47.506;19.158;2022-12-07T16:32:23;6.30;72.79
67572;SHT31;54397;47.506;19.158;2022-12-07T16:35:45;6.29;72.50
67572;SHT31;54397;47.506;19.158;2022-12-07T16:39:06;6.21;72.69
67572;SHT31;54397;47.506;19.158;2022-12-07T16:42:32;6.30;71.76
67572;SHT31;54397;47.506;19.158;2022-12-07T16:45:56;6.20;73.23
67572;SHT31;54397;47.506;19.158;2022-12-07T16:49:22;6.14;72.52
67572;SHT31;54397;47.506;19.158;2022-12-07T16:52:45;6.11;73.02
67572;SHT31;54397;47.506;19.158;2022-12-07T16:56:14;6.29;85.32
67572;SHT31;54397;47.506;19.158;2022-12-07T16:59:36;7.06;87.44
67572;SHT31;54397;47.506;19.158;2022-12-07T17:02:58;7.78;79.68
67572;SHT31;54397;47.506;19.158;2022-12-07T17:06:23;8.07;74.41
67572;SHT31;54397;47.506;19.158;2022-12-07T17:09:45;8.06;73.55
67572;SHT31;54397;47.506;19.158;2022-12-07T17:13:09;7.78;67.12
67572;SHT31;54397;47.506;19.158;2022-12-07T17:16:50;7.26;68.45
67572;SHT31;54397;47.506;19.158;2022-12-07T17:20:12;6.88;69.86
67572;SHT31;54397;47.506;19.158;2022-12-07T17:23:35;6.58;70.63
67572;SHT31;54397;47.506;19.158;2022-12-07T17:26:59;6.38;70.94
67572;SHT31;54397;47.506;19.158;2022-12-07T17:30:21;6.16;71.63
67572;SHT31;54397;47.506;19.158;2022-12-07T17:33:47;6.10;71.65
67572;SHT31;54397;47.506;19.158;2022-12-07T17:37:09;6.02;72.31
67572;SHT31;54397;47.506;19.158;2022-12-07T17:40:33;5.99;72.46
67572;SHT31;54397;47.506;19.158;2022-12-07T17:43:56;5.85;71.87
67572;SHT31;54397;47.506;19.158;2022-12-07T17:47:26;5.81;72.05
67572;SHT31;54397;47.506;19.158;2022-12-07T17:50:50;5.72;72.42
67572;SHT31;54397;47.506;19.158;2022-12-07T17:54:31;5.63;72.58
67572;SHT31;54397;47.506;19.158;2022-12-07T17:57:52;5.52;73.01
67572;SHT31;54397;47.506;19.158;2022-12-07T18:01:14;5.45;73.06
67572;SHT31;54397;47.506;19.158;2022-12-07T18:04:43;5.45;73.62
67572;SHT31;54397;47.506;19.158;2022-12-07T18:08:06;5.43;73.46
67572;SHT31;54397;47.506;19.158;2022-12-07T18:11:28;5.56;79.00
67572;SHT31;54397;47.506;19.158;2022-12-07T18:14:50;5.90;81.72
67572;SHT31;54397;47.506;19.158;2022-12-07T18:18:16;6.21;80.30
67572;SHT31;54397;47.506;19.158;2022-12-07T18:21:38;6.44;79.03
67572;SHT31;54397;47.506;19.158;2022-12-07T18:25:00;6.54;78.30
67572;SHT31;54397;47.506;19.158;2022-12-07T18:28:24;6.40;77.26
67572;SHT31;54397;47.506;19.158;2022-12-07T18:31:46;6.03;71.00
67572;SHT31;54397;47.506;19.158;2022-12-07T18:35:08;5.68;72.25
67572;SHT31;54397;47.506;19.158;2022-12-07T18:38:30;5.38;73.15
67572;SHT31;54397;47.506;19.158;2022-12-07T18:41:51;5.16;72.54
67572;SHT31;54397;47.506;19.158;2022-12-07T18:45:13;4.93;73.39
67572;SHT31;54397;47.506;19.158;2022-12-07T18:48:37;4.66;74.09
67572;SHT31;54397;47.506;19.158;2022-12-07T18:52:04;4.55;75.05
67572;SHT31;54397;47.506;19.158;2022-12-07T18:55:27;4.51;74.67
67572;SHT31;54397;47.506;19.158;2022-12-07T18:59:00;4.42;74.57
67572;SHT31;54397;47.506;19.158;2022-12-07T19:02:43;4.34;73.87
67572;SHT31;54397;47.506;19.158;2022-12-07T19:06:05;4.25;74.06
67572;SHT31;54397;47.506;19.158;2022-12-07T19:09:29;4.24;74.09
67572;SHT31;54397;47.506;19.158;2022-12-07T19:12:51;4.22;73.55
67572;SHT31;54397;47.506;19.158;2022-12-07T19:16:12;4.04;81.62
67572;SHT31;54397;47.506;19.158;2022-12-07T19:19:42;4.56;90.50
67572;SHT31;54397;47.506;19.158;2022-12-07T19:23:04;5.07;88.74
67572;SHT31;54397;47.506;19.158;2022-12-07T19:26:28;5.44;85.75
67572;SHT31;54397;47.506;19.158;2022-12-07T19:29:49;5.75;85.13
67572;SHT31;54397;47.506;19.158;2022-12-07T19:33:14;5.31;73.06
67572;SHT31;54397;47.506;19.158;2022-12-07T19:36:39;4.89;73.22
67572;SHT31;54397;47.506;19.158;2022-12-07T19:40:01;4.58;73.22
67572;SHT31;54397;47.506;19.158;2022-12-07T19:43:25;4.20;73.57
67572;SHT31;54397;47.506;19.158;2022-12-07T19:46:55;4.00;74.60
67572;SHT31;54397;47.506;19.158;2022-12-07T19:50:25;3.93;74.38
67572;SHT31;54397;47.506;19.158;2022-12-07T19:53:47;3.72;75.08
67572;SHT31;54397;47.506;19.158;2022-12-07T19:57:09;3.58;75.08
67572;SHT31;54397;47.506;19.158;2022-12-07T20:00:35;3.52;75.32
67572;SHT31;54397;47.506;19.158;2022-12-07T20:03:57;3.43;76.29
67572;SHT31;54397;47.506;19.158;2022-12-07T20:07:18;3.75;84.94
67572;SHT31;54397;47.506;19.158;2022-12-07T20:10:40;3.94;83.59
67572;SHT31;54397;47.506;19.158;2022-12-07T20:14:05;4.22;83.37
67572;SHT31;54397;47.506;19.158;2022-12-07T20:17:29;4.36;82.02
67572;SHT31;54397;47.506;19.158;2022-12-07T20:21:00;4.49;82.75
67572;SHT31;54397;47.506;19.158;2022-12-07T20:24:25;4.73;82.07
67572;SHT31;54397;47.506;19.158;2022-12-07T20:27:46;4.62;80.11
67572;SHT31;54397;47.506;19.158;2022-12-07T20:31:08;4.44;73.48
67572;SHT31;54397;47.506;19.158;2022-12-07T20:34:32;4.16;74.18
67572;SHT31;54397;47.506;19.158;2022-12-07T20:37:54;3.87;73.91
67572;SHT31;54397;47.506;19.158;2022-12-07T20:41:15;3.83;75.59
67572;SHT31;54397;47.506;19.158;2022-12-07T20:44:56;3.85;76.85
67572;SHT31;54397;47.506;19.158;2022-12-07T20:48:25;3.76;76.28
67572;SHT31;54397;47.506;19.158;2022-12-07T20:51:58;3.59;76.45
67572;SHT31;54397;47.506;19.158;2022-12-07T20:55:20;3.62;75.48
67572;SHT31;54397;47.506;19.158;2022-12-07T20:58:41;3.62;75.22
67572;SHT31;54397;47.506;19.158;2022-12-07T21:02:03;3.48;75.19
67572;SHT31;54397;47.506;19.158;2022-12-07T21:05:25;3.31;75.70
67572;SHT31;54397;47.506;19.158;2022-12-07T21:08:49;3.65;86.99
67572;SHT31;54397;47.506;19.158;2022-12-07T21:12:10;4.01;84.69
67572;SHT31;54397;47.506;19.158;2022-12-07T21:15:32;4.27;82.03
67572;SHT31;54397;47.506;19.158;2022-12-07T21:18:59;4.49;81.99
67572;SHT31;54397;47.506;19.158;2022-12-07T21:22:24;4.44;80.58
67572;SHT31;54397;47.506;19.158;2022-12-07T21:25:46;4.52;82.35
67572;SHT31;54397;47.506;19.158;2022-12-07T21:29:08;4.40;74.58
67572;SHT31;54397;47.506;19.158;2022-12-07T21:32:30;4.07;74.27
67572;SHT31;54397;47.506;19.158;2022-12-07T21:35:51;3.73;75.15
67572;SHT31;54397;47.506;19.158;2022-12-07T21:39:15;3.43;75.53
67572;SHT31;54397;47.506;19.158;2022-12-07T21:42:38;3.25;77.05
67572;SHT31;54397;47.506;19.158;2022-12-07T21:46:01;3.11;77.39
67572;SHT31;54397;47.506;19.158;2022-12-07T21:49:25;3.17;75.37
67572;SHT31;54397;47.506;19.158;2022-12-07T21:52:47;3.11;73.91
67572;SHT31;54397;47.506;19.158;2022-12-07T21:56:29;3.00;74.73
67572;SHT31;54397;47.506;19.158;2022-12-07T21:59:52;3.05;74.47
67572;SHT31;54397;47.506;19.158;2022-12-07T22:03:13;2.93;74.50
67572;SHT31;54397;47.506;19.158;2022-12-07T22:06:38;3.04;74.14
67572;SHT31;54397;47.506;19.158;2022-12-07T22:10:02;2.86;75.84
67572;SHT31;54397;47.506;19.158;2022-12-07T22:13:24;2.76;75.56
67572;SHT31;54397;47.506;19.158;2022-12-07T22:17:05;2.59;76.12
67572;SHT31;54397;47.506;19.158;2022-12-07T22:20:30;2.44;76.48
67572;SHT31;54397;47.506;19.158;2022-12-07T22:23:52;2.34;77.27
67572;SHT31;54397;47.506;19.158;2022-12-07T22:27:16;2.35;77.62
67572;SHT31;54397;47.506;19.158;2022-12-07T22:30:37;2.34;77.28
67572;SHT31;54397;47.506;19.158;2022-12-07T22:33:59;2.28;78.29
67572;SHT31;54397;47.506;19.158;2022-12-07T22:37:21;2.32;78.60
67572;SHT31;54397;47.506;19.158;2022-12-07T22:40:44;2.31;79.43
67572;SHT31;54397;47.506;19.158;2022-12-07T22:44:06;2.41;77.26
67572;SHT31;54397;47.506;19.158;2022-12-07T22:47:28;2.34;77.56
67572;SHT31;54397;47.506;19.158;2022-12-07T22:50:52;2.31;76.64
67572;SHT31;54397;47.506;19.158;2022-12-07T22:54:15;2.17;77.11
67572;SHT31;54397;47.506;19.158;2022-12-07T22:57:39;2.28;77.09
67572;SHT31;54397;47.506;19.158;2022-12-07T23:01:06;2.22;78.46
67572;SHT31;54397;47.506;19.158;2022-12-07T23:04:28;2.20;77.95
67572;SHT31;54397;47.506;19.158;2022-12-07T23:07:55;2.27;77.30
67572;SHT31;54397;47.506;19.158;2022-12-07T23:11:21;2.57;75.96
67572;SHT31;54397;47.506;19.158;2022-12-07T23:15:03;2.57;75.55
67572;SHT31;54397;47.506;19.158;2022-12-07T23:18:28;2.41;76.25
67572;SHT31;54397;47.506;19.158;2022-12-07T23:21:50;2.17;77.11
67572;SHT31;54397;47.506;19.158;2022-12-07T23:25:14;2.01;78.29
67572;SHT31;54397;47.506;19.158;2022-12-07T23:28:36;2.11;78.00
67572;SHT31;54397;47.506;19.158;2022-12-07T23:31:58;2.14;76.80
67572;SHT31;54397;47.506;19.158;2022-12-07T23:35:19;2.15;77.52
67572;SHT31;54397;47.506;19.158;2022-12-07T23:38:43;2.06;77.80
67572;SHT31;54397;47.506;19.158;2022-12-07T23:42:07;2.07;78.38
67572;SHT31;54397;47.506;19.158;2022-12-07T23:45:28;2.00;77.14